Time;durP1;ratioP1;P1;durP2;ratioP2;P2;SDS_P1;SDS_P2;PMS_P1;PMS_P2;Temp;Humidity;BMP_temperature;BMP_pressure;BME280_temperature;BME280_humidity;BME280_pressure;Samples;Min_cycle;Max_cycle;Signal;HPM_P1;HPM_P2
2023/10/17 00:01:13;;;;;;;15.00;13.60;;;8.60;99.90;;;;;;5016752;28;20420;-72
2023/10/17 00:03:43;;;;;;;14.50;13.20;;;8.60;99.90;;;;;;5016665;28;20907;-72
2023/10/17 00:06:14;;;;;;;13.97;12.70;;;8.60;99.90;;;;;;5016314;28;20539;-71
2023/10/17 00:08:43;;;;;;;12.73;11.70;;;8.60;99.90;;;;;;5014872;28;20450;-71
2023/10/17 00:11:21;;;;;;;14.50;13.27;;;8.60;99.90;;;;;;5016070;28;20819;-72
2023/10/17 00:14:07;;;;;;;12.90;11.90;;;8.70;99.90;;;;;;5016215;28;20431;-71
2023/10/17 00:16:37;;;;;;;13.67;12.50;;;8.70;99.90;;;;;;5015999;28;20459;-72
2023/10/17 00:19:09;;;;;;;13.70;12.60;;;8.70;99.90;;;;;;5014917;28;20866;-72
2023/10/17 00:21:39;;;;;;;13.00;11.97;;;8.70;99.90;;;;;;5016076;28;20428;-72
2023/10/17 00:24:09;;;;;;;13.43;12.30;;;8.70;99.90;;;;;;5016603;28;20432;-72
2023/10/17 00:26:39;;;;;;;14.60;13.30;;;8.70;99.90;;;;;;5016085;28;20517;-71
2023/10/17 00:29:09;;;;;;;13.27;12.20;;;8.70;99.90;;;;;;5015747;28;20440;-72
2023/10/17 00:31:41;;;;;;;13.30;12.10;;;8.70;99.90;;;;;;5014671;28;20447;-72
2023/10/17 00:34:15;;;;;;;14.87;13.40;;;8.70;99.90;;;;;;5014254;28;20510;-72
2023/10/17 00:36:49;;;;;;;13.73;12.53;;;8.70;99.90;;;;;;5014399;28;20578;-72
2023/10/17 00:39:29;;;;;;;13.20;12.20;;;8.70;99.90;;;;;;5014208;28;20448;-72
2023/10/17 00:44:55;;;;;;;13.13;12.00;;;8.70;99.90;;;;;;5014258;28;20463;-72
2023/10/17 00:47:26;;;;;;;13.57;12.37;;;8.70;99.90;;;;;;5013994;28;20475;-71
2023/10/17 00:49:54;;;;;;;13.07;11.90;;;8.70;99.90;;;;;;5015620;28;20531;-72
2023/10/17 00:52:28;;;;;;;13.93;12.83;;;8.70;99.90;;;;;;5014141;28;20531;-71
2023/10/17 00:54:59;;;;;;;13.10;11.90;;;8.70;99.90;;;;;;5015445;28;20486;-72
2023/10/17 00:57:27;;;;;;;13.63;12.43;;;8.70;99.90;;;;;;5015677;28;20844;-72
2023/10/17 00:59:56;;;;;;;12.47;11.37;;;8.70;99.90;;;;;;5014370;28;20470;-72
2023/10/17 01:02:29;;;;;;;13.50;12.40;;;8.70;99.90;;;;;;5013761;28;20448;-72
2023/10/17 01:04:59;;;;;;;14.20;12.70;;;8.70;99.90;;;;;;5015042;28;20424;-71
2023/10/17 01:07:29;;;;;;;12.87;11.67;;;8.80;99.90;;;;;;5014814;28;20482;-72
2023/10/17 01:10:09;;;;;;;12.67;11.47;;;8.70;99.90;;;;;;5015006;28;20841;-72
2023/10/17 01:12:46;;;;;;;12.50;11.40;;;8.80;99.90;;;;;;5013573;28;20440;-72
2023/10/17 01:15:22;;;;;;;14.37;13.07;;;8.80;99.90;;;;;;5013599;28;20925;-72
2023/10/17 01:17:54;;;;;;;12.80;11.57;;;8.80;99.90;;;;;;5013626;28;20464;-72
2023/10/17 01:20:23;;;;;;;12.40;11.30;;;8.70;99.90;;;;;;5014755;28;20511;-72
2023/10/17 01:22:55;;;;;;;13.03;11.73;;;8.70;99.90;;;;;;5013725;28;20498;-72
2023/10/17 01:25:26;;;;;;;12.10;11.10;;;8.80;99.90;;;;;;5013411;28;20929;-72
2023/10/17 01:27:57;;;;;;;11.47;10.57;;;8.80;99.90;;;;;;5014508;28;20949;-72
2023/10/17 01:30:29;;;;;;;12.27;11.07;;;8.80;99.90;;;;;;5013321;28;20439;-72
2023/10/17 01:32:59;;;;;;;12.70;11.67;;;8.80;99.90;;;;;;5014109;28;20547;-72
2023/10/17 01:35:28;;;;;;;12.30;11.30;;;8.80;99.90;;;;;;5013570;28;20479;-72
2023/10/17 01:37:56;;;;;;;11.50;10.50;;;8.80;99.90;;;;;;5013125;28;20880;-72
2023/10/17 01:40:27;;;;;;;11.57;10.57;;;8.80;99.90;;;;;;5013124;28;20814;-72
2023/10/17 01:42:58;;;;;;;11.00;10.10;;;8.80;99.90;;;;;;5013252;28;20440;-71
2023/10/17 01:45:26;;;;;;;11.33;10.33;;;8.80;99.90;;;;;;5013248;28;20491;-71
2023/10/17 01:47:55;;;;;;;11.40;10.40;;;8.80;99.90;;;;;;5012900;28;20471;-72
2023/10/17 01:50:24;;;;;;;11.40;10.40;;;8.80;99.90;;;;;;5013068;28;20444;-71
2023/10/17 01:52:53;;;;;;;12.23;11.13;;;8.80;99.90;;;;;;5013062;28;20542;-71
2023/10/17 01:55:24;;;;;;;12.70;11.60;;;8.80;99.90;;;;;;5014279;28;20487;-71
2023/10/17 01:57:57;;;;;;;11.63;10.63;;;8.80;99.90;;;;;;5012980;28;20466;-71
2023/10/17 02:00:26;;;;;;;11.83;10.73;;;8.80;99.90;;;;;;5014758;28;20423;-72
2023/10/17 02:02:55;;;;;;;11.97;10.97;;;8.80;99.90;;;;;;5012778;28;20961;-72
2023/10/17 02:05:25;;;;;;;12.30;11.20;;;8.90;99.90;;;;;;5014109;28;20440;-71
2023/10/17 02:07:54;;;;;;;9.37;8.57;;;8.90;99.90;;;;;;5012593;28;20892;-71
2023/10/17 02:10:24;;;;;;;11.67;10.67;;;8.80;99.90;;;;;;5014182;28;20466;-72
2023/10/17 02:12:54;;;;;;;13.07;11.83;;;8.90;99.90;;;;;;5012875;28;20475;-72
2023/10/17 02:15:23;;;;;;;11.03;10.13;;;8.90;99.90;;;;;;5012766;28;20475;-71
2023/10/17 02:17:53;;;;;;;12.70;11.60;;;8.90;99.90;;;;;;5015123;28;20831;-71
2023/10/17 02:20:28;;;;;;;13.13;12.07;;;8.90;99.90;;;;;;5013731;28;20435;-71
2023/10/17 02:22:59;;;;;;;13.87;12.33;;;8.90;99.90;;;;;;5014160;28;20851;-71
2023/10/17 02:25:32;;;;;;;12.70;11.67;;;8.90;99.90;;;;;;5014144;28;20451;-71
2023/10/17 02:28:02;;;;;;;11.97;10.97;;;8.90;99.90;;;;;;5013694;28;20842;-71
2023/10/17 02:30:30;;;;;;;13.43;12.23;;;8.80;99.90;;;;;;5013891;28;20443;-71
2023/10/17 02:33:01;;;;;;;9.97;9.17;;;8.90;99.90;;;;;;5012680;28;20452;-71
2023/10/17 02:35:36;;;;;;;11.60;10.53;;;8.90;99.90;;;;;;5014282;28;20747;-71
2023/10/17 02:38:05;;;;;;;13.17;11.87;;;8.90;99.90;;;;;;5012652;28;20436;-71
2023/10/17 02:40:38;;;;;;;12.43;11.47;;;8.90;99.90;;;;;;5012702;28;20796;-71
2023/10/17 02:43:12;;;;;;;12.43;11.37;;;8.90;99.90;;;;;;5014089;28;20458;-71
2023/10/17 02:45:42;;;;;;;12.77;11.77;;;8.90;99.90;;;;;;5013482;28;20447;-71
2023/10/17 02:48:23;;;;;;;12.87;11.83;;;8.90;99.90;;;;;;5013836;28;20517;-71
2023/10/17 02:50:58;;;;;;;13.10;11.97;;;8.90;99.90;;;;;;5013973;28;20515;-71
2023/10/17 02:53:29;;;;;;;14.00;12.80;;;8.90;99.90;;;;;;5012543;28;21021;-71
2023/10/17 02:56:07;;;;;;;12.03;11.03;;;8.90;99.90;;;;;;5012366;28;20464;-71
2023/10/17 02:58:36;;;;;;;13.33;12.13;;;8.90;99.90;;;;;;5012788;28;20862;-71
2023/10/17 03:01:04;;;;;;;11.80;10.70;;;8.90;99.90;;;;;;5012742;28;20800;-71
2023/10/17 03:03:35;;;;;;;13.93;12.80;;;8.90;99.90;;;;;;5012262;28;21016;-71
2023/10/17 03:06:05;;;;;;;13.40;12.30;;;8.90;99.90;;;;;;5012420;28;20471;-71
2023/10/17 03:08:36;;;;;;;13.30;12.20;;;8.90;99.90;;;;;;5012623;28;20460;-71
2023/10/17 03:11:08;;;;;;;11.90;10.90;;;8.90;99.90;;;;;;5015017;28;21003;-71
2023/10/17 03:13:41;;;;;;;12.90;11.70;;;8.90;99.90;;;;;;5015460;28;20464;-71
2023/10/17 03:16:16;;;;;;;12.27;11.27;;;9.00;99.90;;;;;;5013664;28;20526;-71
2023/10/17 03:18:50;;;;;;;12.20;11.20;;;9.00;99.90;;;;;;5012108;28;20447;-71
2023/10/17 03:21:20;;;;;;;13.20;12.10;;;9.00;99.90;;;;;;5013595;28;20478;-71
2023/10/17 03:23:49;;;;;;;14.63;13.13;;;9.00;99.90;;;;;;5012091;28;20450;-71
2023/10/17 03:26:20;;;;;;;13.93;12.73;;;9.00;99.90;;;;;;5013266;28;20510;-71
2023/10/17 03:28:50;;;;;;;12.10;11.20;;;9.00;99.90;;;;;;5013700;28;20785;-71
2023/10/17 03:31:21;;;;;;;13.10;12.00;;;9.00;99.90;;;;;;5014575;28;20526;-71
2023/10/17 03:33:52;;;;;;;14.30;12.97;;;9.00;99.90;;;;;;5015734;28;20443;-71
2023/10/17 03:36:40;;;;;;;12.63;11.63;;;9.00;99.90;;;;;;5016708;28;20455;-71
2023/10/17 03:39:19;;;;;;;14.07;12.97;;;9.00;99.90;;;;;;5015506;28;20490;-71
2023/10/17 03:41:48;;;;;;;13.50;12.40;;;9.00;99.90;;;;;;5015425;28;20439;-71
2023/10/17 03:44:18;;;;;;;13.10;12.00;;;9.00;99.90;;;;;;5016856;28;20798;-71
2023/10/17 03:46:48;;;;;;;12.90;11.90;;;9.00;99.90;;;;;;5015367;28;20522;-71
2023/10/17 03:49:18;;;;;;;12.40;11.40;;;9.00;99.90;;;;;;5015234;28;20467;-71
2023/10/17 03:51:52;;;;;;;13.10;12.10;;;9.00;99.90;;;;;;5016448;28;20453;-71
2023/10/17 03:54:22;;;;;;;12.93;11.93;;;9.00;99.90;;;;;;5016569;28;20432;-71
2023/10/17 03:56:56;;;;;;;12.83;11.63;;;9.00;99.90;;;;;;5016605;28;20872;-71
2023/10/17 03:59:38;;;;;;;12.70;11.67;;;9.00;99.90;;;;;;5016751;28;20783;-71
2023/10/17 04:02:11;;;;;;;13.27;12.23;;;9.00;99.90;;;;;;5015221;28;20439;-71
2023/10/17 04:04:49;;;;;;;13.57;12.47;;;9.00;99.90;;;;;;5016374;28;20478;-71
2023/10/17 04:07:19;;;;;;;12.87;11.73;;;9.00;99.90;;;;;;5017145;28;20464;-71
2023/10/17 04:09:54;;;;;;;12.10;11.10;;;9.00;99.90;;;;;;5014882;28;20460;-72
2023/10/17 04:12:31;;;;;;;13.90;12.57;;;9.00;99.90;;;;;;5016362;28;20424;-71
2023/10/17 04:15:04;;;;;;;13.73;12.63;;;9.00;99.90;;;;;;5016472;28;20454;-71
2023/10/17 04:17:36;;;;;;;14.30;12.83;;;9.00;99.90;;;;;;5016291;28;20468;-71
2023/10/17 04:20:11;;;;;;;13.53;12.33;;;9.00;99.90;;;;;;5016392;28;20419;-71
2023/10/17 04:22:43;;;;;;;13.93;12.43;;;9.00;99.90;;;;;;5015141;28;20447;-71
2023/10/17 04:25:20;;;;;;;13.60;12.50;;;9.00;99.90;;;;;;5016513;28;20503;-71
2023/10/17 04:27:52;;;;;;;16.00;14.53;;;9.00;99.90;;;;;;5016537;28;20462;-71
2023/10/17 04:30:29;;;;;;;14.13;12.93;;;9.00;99.90;;;;;;5016204;28;20964;-71
2023/10/17 04:33:08;;;;;;;13.57;12.47;;;9.10;99.90;;;;;;5014495;28;20574;-71
2023/10/17 04:35:40;;;;;;;13.50;12.33;;;9.10;99.90;;;;;;5015919;28;20428;-71
2023/10/17 04:38:18;;;;;;;13.43;12.33;;;9.10;99.90;;;;;;5015974;28;20430;-71
2023/10/17 04:40:54;;;;;;;14.50;13.30;;;9.00;99.90;;;;;;5015807;28;20427;-71
2023/10/17 04:46:09;;;;;;;12.80;11.90;;;9.00;99.90;;;;;;5014174;28;20467;-71
2023/10/17 04:48:40;;;;;;;12.90;11.90;;;9.10;99.90;;;;;;5015508;28;20428;-71
2023/10/17 04:51:25;;;;;;;13.97;12.83;;;9.10;99.90;;;;;;5015402;28;20459;-71
2023/10/17 04:53:55;;;;;;;13.80;12.53;;;9.10;99.90;;;;;;5014087;28;20969;-71
2023/10/17 04:56:23;;;;;;;13.80;12.60;;;9.10;99.90;;;;;;5015085;28;20467;-71
2023/10/17 04:58:53;;;;;;;13.30;12.20;;;9.10;99.90;;;;;;5015292;28;20483;-71
2023/10/17 05:01:41;;;;;;;13.87;12.67;;;9.10;99.90;;;;;;5015910;28;20428;-71
2023/10/17 05:04:18;;;;;;;13.33;12.13;;;9.10;99.90;;;;;;5015182;28;20413;-71
2023/10/17 06:17:22;;;;;;;17.53;16.03;;;8.50;99.90;;;;;;5061027;28;20465;-71
2023/10/17 06:19:50;;;;;;;18.07;16.40;;;8.40;99.90;;;;;;5062043;28;20430;-71
2023/10/17 06:23:23;;;;;;;16.23;14.83;;;8.40;99.90;;;;;;5056047;28;20854;-71
2023/10/17 06:28:27;;;;;;;15.03;13.70;;;8.30;99.90;;;;;;4974997;28;20491;-71
2023/10/17 06:33:42;;;;;;;13.73;12.63;;;8.30;99.90;;;;;;5056223;28;20444;-71
2023/10/17 06:36:14;;;;;;;14.37;13.07;;;8.30;99.90;;;;;;5055710;28;20458;-70
2023/10/17 06:38:49;;;;;;;15.20;13.90;;;8.30;99.90;;;;;;5055833;28;20492;-71
2023/10/17 06:41:27;;;;;;;12.70;11.60;;;8.20;99.90;;;;;;5056013;28;20963;-71
2023/10/17 06:43:57;;;;;;;13.63;12.50;;;8.20;99.90;;;;;;5054439;28;21003;-71
2023/10/17 06:46:30;;;;;;;14.10;12.90;;;8.20;99.90;;;;;;5055519;28;20559;-71
2023/10/17 06:49:05;;;;;;;13.87;12.43;;;8.20;99.90;;;;;;5055538;28;20502;-71
2023/10/17 06:51:36;;;;;;;14.03;12.93;;;8.20;99.90;;;;;;5054414;28;20434;-71
2023/10/17 06:54:08;;;;;;;15.10;13.20;;;8.20;99.90;;;;;;5055790;28;20774;-71
2023/10/17 06:56:41;;;;;;;13.43;12.33;;;8.20;99.90;;;;;;5055590;28;20954;-71
2023/10/17 06:59:24;;;;;;;19.10;15.10;;;8.20;99.90;;;;;;5055398;28;20425;-71
2023/10/17 07:04:50;;;;;;;14.27;13.07;;;8.20;99.90;;;;;;5019631;28;20462;-71
2023/10/17 07:07:22;;;;;;;15.03;13.73;;;8.20;99.90;;;;;;5055495;28;20438;-71
2023/10/17 07:09:52;;;;;;;15.10;13.70;;;8.20;99.90;;;;;;5055186;28;20458;-71
2023/10/17 07:12:21;;;;;;;15.63;14.23;;;8.30;99.90;;;;;;5055453;28;20423;-71
2023/10/17 07:14:51;;;;;;;15.30;13.90;;;8.30;99.90;;;;;;5055201;28;20969;-71
2023/10/17 07:17:28;;;;;;;14.67;13.17;;;8.30;99.90;;;;;;5055193;28;20817;-71
2023/10/17 07:19:59;;;;;;;13.87;12.70;;;8.30;99.90;;;;;;5055069;28;20414;-71
2023/10/17 07:22:35;;;;;;;13.17;11.97;;;8.30;99.90;;;;;;5053720;28;20553;-71
2023/10/17 07:25:14;;;;;;;13.33;12.20;;;8.40;99.90;;;;;;5055003;28;20414;-71
2023/10/17 07:27:44;;;;;;;15.47;14.03;;;8.40;99.90;;;;;;5053651;28;20473;-71
2023/10/17 07:30:14;;;;;;;14.47;13.23;;;8.40;99.90;;;;;;5054801;28;20466;-71
2023/10/17 07:32:54;;;;;;;14.53;13.20;;;8.50;99.90;;;;;;5054387;28;20857;-71
2023/10/17 07:35:30;;;;;;;13.63;12.33;;;8.50;99.90;;;;;;5053466;28;20470;-71
2023/10/17 07:38:00;;;;;;;15.30;13.87;;;8.60;99.90;;;;;;5054659;28;20799;-71
2023/10/17 07:40:58;;;;;;;14.30;12.90;;;8.60;99.90;;;;;;5054647;28;21098;-71
2023/10/17 07:43:30;;;;;;;13.83;12.60;;;8.60;99.90;;;;;;5055112;28;20474;-71
2023/10/17 07:46:06;;;;;;;13.60;12.50;;;8.70;99.90;;;;;;5053245;28;20438;-71
2023/10/17 07:48:34;;;;;;;11.53;10.37;;;8.70;99.90;;;;;;5054373;28;21037;-71
2023/10/17 07:51:06;;;;;;;11.80;10.70;;;8.80;99.90;;;;;;5053154;28;20445;-71
2023/10/17 07:53:34;;;;;;;11.33;10.13;;;8.80;99.90;;;;;;5054735;28;20488;-71
2023/10/17 07:56:05;;;;;;;9.13;8.33;;;8.80;99.90;;;;;;5054331;28;20536;-71
2023/10/17 07:58:43;;;;;;;10.83;9.83;;;8.90;99.90;;;;;;5054523;28;20426;-71
2023/10/17 08:01:16;;;;;;;12.90;9.50;;;8.90;99.90;;;;;;5054675;28;20881;-71
2023/10/17 08:06:31;;;;;;;9.43;8.63;;;9.00;99.90;;;;;;5052255;28;20531;-71
2023/10/17 08:09:00;;;;;;;7.40;6.70;;;9.10;99.90;;;;;;5053808;28;20489;-71
2023/10/17 08:11:31;;;;;;;7.43;6.70;;;9.10;99.90;;;;;;5054027;28;20429;-71
2023/10/17 08:14:05;;;;;;;10.93;6.43;;;9.20;99.90;;;;;;5054029;28;20422;-71
2023/10/17 08:16:33;;;;;;;6.50;5.90;;;9.20;99.90;;;;;;5054217;28;20459;-71
2023/10/17 08:19:14;;;;;;;9.17;6.20;;;9.30;99.90;;;;;;5053949;28;20816;-71
2023/10/17 08:22:09;;;;;;;6.63;5.30;;;9.30;99.90;;;;;;5054073;28;20426;-71
2023/10/17 08:24:40;;;;;;;4.73;4.33;;;9.40;99.90;;;;;;5052856;28;20442;-71
2023/10/17 08:27:18;;;;;;;4.67;4.17;;;9.50;99.90;;;;;;5053669;28;20991;-71
2023/10/17 08:29:48;;;;;;;6.43;4.60;;;9.50;99.90;;;;;;5053813;28;20471;-71
2023/10/17 08:32:38;;;;;;;4.50;4.10;;;9.60;99.90;;;;;;5053979;28;20440;-71
2023/10/17 08:35:10;;;;;;;4.87;4.10;;;9.60;99.90;;;;;;5052392;28;20454;-71
2023/10/17 08:37:44;;;;;;;4.00;3.57;;;9.70;99.90;;;;;;5053537;28;20477;-71
2023/10/17 08:40:32;;;;;;;5.87;4.70;;;9.70;99.90;;;;;;5053887;28;20421;-71
2023/10/17 08:43:14;;;;;;;3.63;3.33;;;9.80;99.90;;;;;;5053572;28;20533;-71
2023/10/17 08:45:44;;;;;;;4.57;3.03;;;9.90;99.90;;;;;;5052140;28;20876;-71
2023/10/17 08:48:13;;;;;;;4.63;3.27;;;9.90;99.90;;;;;;5053513;28;20433;-71
2023/10/17 08:50:43;;;;;;;5.23;3.53;;;10.00;99.90;;;;;;5053290;28;20469;-71
2023/10/17 08:53:19;;;;;;;3.80;3.00;;;10.00;99.90;;;;;;5053797;28;20466;-71
2023/10/17 08:55:50;;;;;;;5.47;3.90;;;10.10;99.90;;;;;;5053695;28;20422;-71
2023/10/17 08:58:24;;;;;;;5.33;3.30;;;10.10;99.90;;;;;;5053919;28;20799;-71
2023/10/17 09:01:07;;;;;;;3.10;2.80;;;10.20;99.90;;;;;;5053419;28;20429;-70
2023/10/17 09:03:41;;;;;;;5.87;2.90;;;10.20;99.90;;;;;;5053461;28;20418;-71
2023/10/17 09:08:55;;;;;;;3.80;2.93;;;10.30;99.90;;;;;;5053115;28;20556;-71
2023/10/17 09:11:30;;;;;;;3.60;2.43;;;10.40;99.90;;;;;;5053539;28;20484;-71
2023/10/17 09:14:17;;;;;;;3.20;2.50;;;10.40;99.90;;;;;;5053298;28;20422;-70
2023/10/17 09:16:50;;;;;;;4.30;2.27;;;10.50;99.90;;;;;;5053704;28;20507;-70
2023/10/17 09:19:21;;;;;;;3.00;2.47;;;10.50;99.90;;;;;;5053452;28;20823;-71
2023/10/17 09:21:50;;;;;;;4.43;3.27;;;10.60;99.90;;;;;;5053352;28;20793;-71
2023/10/17 09:24:35;;;;;;;4.00;2.67;;;10.60;99.90;;;;;;5053073;28;20433;-71
2023/10/17 09:27:09;;;;;;;5.80;2.60;;;10.70;99.90;;;;;;5051763;28;20473;-71
2023/10/17 09:29:50;;;;;;;3.93;2.40;;;10.70;99.90;;;;;;5052984;28;20458;-71
2023/10/17 09:32:35;;;;;;;5.90;2.40;;;10.70;99.90;;;;;;5051739;28;20809;-71
2023/10/17 09:35:10;;;;;;;3.50;2.47;;;10.80;99.90;;;;;;5053477;28;20957;-71
2023/10/17 09:37:41;;;;;;;2.60;2.30;;;10.80;99.90;;;;;;5053291;28;20485;-71
2023/10/17 09:40:13;;;;;;;4.53;2.77;;;10.90;99.90;;;;;;5051844;28;20533;-71
2023/10/17 09:42:44;;;;;;;3.90;2.73;;;10.80;99.90;;;;;;5051754;28;20449;-71
2023/10/17 09:45:15;;;;;;;2.90;2.10;;;10.90;99.90;;;;;;5053010;28;20480;-71
2023/10/17 09:48:05;;;;;;;4.77;2.30;;;10.90;99.90;;;;;;5053070;28;20465;-71
2023/10/17 09:50:37;;;;;;;4.87;2.43;;;10.90;99.90;;;;;;5051721;28;20465;-71
2023/10/17 09:53:16;;;;;;;2.70;1.53;;;10.90;99.90;;;;;;5053184;28;20947;-71
2023/10/17 09:55:48;;;;;;;2.37;1.63;;;11.00;99.90;;;;;;5055759;28;20455;-71
2023/10/17 09:58:22;;;;;;;2.33;1.63;;;11.00;99.90;;;;;;5057699;28;20426;-71
2023/10/17 10:00:54;;;;;;;4.30;2.07;;;11.10;99.90;;;;;;5056941;28;20414;-71
2023/10/17 10:03:24;;;;;;;3.90;2.50;;;11.10;99.90;;;;;;5057358;28;20414;-71
2023/10/17 10:05:54;;;;;;;3.53;2.00;;;11.10;99.90;;;;;;5056762;28;20438;-70
2023/10/17 10:08:32;;;;;;;2.30;1.67;;;11.10;99.90;;;;;;5056919;28;20469;-70
2023/10/17 10:11:05;;;;;;;5.47;1.97;;;11.20;99.90;;;;;;5057293;28;20556;-70
2023/10/17 10:14:02;;;;;;;3.20;1.60;;;11.20;99.90;;;;;;5056892;28;20429;-71
2023/10/17 10:16:49;;;;;;;3.00;2.00;;;11.30;99.90;;;;;;5056939;28;20461;-71
2023/10/17 10:19:18;;;;;;;3.80;2.23;;;11.30;99.90;;;;;;5056830;28;20441;-71
2023/10/17 10:21:55;;;;;;;3.30;2.40;;;11.30;99.90;;;;;;5055004;28;20953;-71
2023/10/17 10:24:27;;;;;;;3.83;2.50;;;11.40;99.90;;;;;;5055168;28;20496;-71
2023/10/17 10:27:26;;;;;;;3.70;2.30;;;11.40;99.90;;;;;;5056716;28;20457;-71
2023/10/17 10:29:56;;;;;;;2.50;1.80;;;11.40;99.90;;;;;;5054799;28;20442;-71
2023/10/17 10:32:35;;;;;;;3.20;2.20;;;11.40;99.90;;;;;;5056175;28;20446;-71
2023/10/17 10:35:05;;;;;;;2.10;1.90;;;11.50;99.90;;;;;;5054816;28;20445;-71
2023/10/17 10:37:52;;;;;;;6.43;2.50;;;11.50;99.90;;;;;;5054744;28;20882;-71
2023/10/17 10:40:26;;;;;;;2.50;1.77;;;11.60;99.90;;;;;;5056078;28;20476;-71
2023/10/17 10:42:58;;;;;;;3.93;2.40;;;11.60;99.90;;;;;;5056242;28;20457;-71
2023/10/17 10:45:35;;;;;;;2.40;1.90;;;11.60;99.90;;;;;;5055769;28;20484;-71
2023/10/17 10:48:12;;;;;;;3.10;2.27;;;11.60;99.90;;;;;;5055862;28;21067;-71
2023/10/17 10:50:42;;;;;;;3.80;1.80;;;11.60;99.90;;;;;;5056109;28;20450;-71
2023/10/17 10:53:22;;;;;;;4.50;2.20;;;11.60;99.90;;;;;;5054690;28;21007;-71
2023/10/17 10:55:55;;;;;;;4.17;2.63;;;11.60;99.90;;;;;;5055570;28;20518;-71
2023/10/17 10:58:29;;;;;;;3.27;1.67;;;11.60;99.90;;;;;;5055545;28;20505;-71
2023/10/17 11:01:00;;;;;;;2.77;1.50;;;11.60;99.90;;;;;;5055994;28;20484;-71
2023/10/17 11:03:30;;;;;;;1.90;1.50;;;11.60;99.90;;;;;;5056348;28;20418;-71
2023/10/17 11:06:03;;;;;;;2.40;1.40;;;11.60;99.90;;;;;;5055636;28;20434;-71
2023/10/17 11:08:36;;;;;;;2.23;1.60;;;11.60;99.90;;;;;;5055416;28;20454;-71
2023/10/17 11:11:05;;;;;;;2.27;1.53;;;11.60;99.90;;;;;;5055893;28;20543;-71
2023/10/17 11:13:37;;;;;;;2.20;1.70;;;11.50;99.90;;;;;;5054289;28;20446;-71
2023/10/17 11:16:06;;;;;;;2.83;1.90;;;11.50;99.90;;;;;;5055384;28;20912;-71
2023/10/17 11:18:34;;;;;;;3.70;1.87;;;11.50;99.90;;;;;;5055230;28;20794;-71
2023/10/17 11:21:05;;;;;;;2.50;2.10;;;11.60;99.90;;;;;;5055228;28;20800;-71
2023/10/17 11:23:35;;;;;;;3.50;2.10;;;11.60;99.90;;;;;;5056080;28;20475;-71
2023/10/17 11:26:07;;;;;;;1.80;1.50;;;11.70;99.90;;;;;;5055459;28;20473;-71
2023/10/17 11:28:57;;;;;;;2.90;1.40;;;11.70;99.90;;;;;;5055202;28;20415;-71
2023/10/17 11:31:26;;;;;;;2.33;0.93;;;11.80;99.90;;;;;;5055509;28;20552;-71
2023/10/17 11:33:55;;;;;;;2.23;1.20;;;11.80;99.90;;;;;;5054814;28;20434;-71
2023/10/17 11:36:24;;;;;;;2.40;1.50;;;11.90;99.90;;;;;;5054998;28;20468;-71
2023/10/17 11:38:56;;;;;;;5.43;1.40;;;12.00;99.90;;;;;;5054828;28;20476;-71
2023/10/17 11:41:29;;;;;;;2.37;1.17;;;12.00;99.90;;;;;;5054764;28;20410;-71
2023/10/17 11:44:04;;;;;;;2.43;1.60;;;12.10;99.90;;;;;;5054815;28;20425;-71
2023/10/17 11:46:33;;;;;;;2.27;1.13;;;12.10;99.90;;;;;;5054994;28;20449;-71
2023/10/17 11:49:21;;;;;;;2.77;1.20;;;12.20;99.90;;;;;;5054913;28;20484;-71
2023/10/17 11:51:51;;;;;;;1.73;1.30;;;12.20;99.90;;;;;;5053668;28;20893;-71
2023/10/17 11:54:22;;;;;;;2.63;1.10;;;12.20;99.90;;;;;;5054770;28;20946;-71
2023/10/17 11:57:12;;;;;;;1.70;0.90;;;12.20;99.90;;;;;;5054390;28;20828;-71
2023/10/17 11:59:56;;;;;;;4.00;1.20;;;12.30;99.90;;;;;;5054793;28;20933;-71
2023/10/17 12:02:24;;;;;;;2.40;1.60;;;12.30;99.90;;;;;;5052971;28;20864;-71
2023/10/17 12:04:53;;;;;;;2.50;1.40;;;12.40;99.90;;;;;;5054294;28;20456;-71
2023/10/17 12:07:21;;;;;;;1.63;0.97;;;12.40;99.90;;;;;;5054780;28;20910;-71
2023/10/17 12:09:53;;;;;;;1.87;0.77;;;12.40;99.90;;;;;;5054339;28;20473;-71
2023/10/17 12:12:22;;;;;;;2.20;1.10;;;12.40;99.90;;;;;;5055156;28;20770;-71
2023/10/17 12:14:53;;;;;;;1.37;0.93;;;12.50;99.90;;;;;;5054242;28;20441;-71
2023/10/17 12:17:23;;;;;;;1.73;0.80;;;12.50;99.90;;;;;;5053600;28;20863;-71
2023/10/17 12:19:52;;;;;;;2.67;1.10;;;12.50;99.90;;;;;;5053163;28;20445;-71
2023/10/17 12:22:20;;;;;;;1.90;1.03;;;12.50;99.90;;;;;;5053989;28;20950;-71
2023/10/17 12:24:48;;;;;;;2.30;1.00;;;12.50;99.90;;;;;;5053892;28;20779;-71
2023/10/17 12:27:18;;;;;;;2.03;1.03;;;12.50;99.90;;;;;;5054169;28;20967;-71
2023/10/17 12:29:46;;;;;;;2.60;1.50;;;12.50;99.90;;;;;;5054080;28;20525;-71
2023/10/17 12:32:16;;;;;;;3.63;1.33;;;12.60;99.90;;;;;;5052643;28;20512;-71
2023/10/17 12:34:49;;;;;;;2.27;1.00;;;12.60;99.90;;;;;;5054435;28;20790;-71
2023/10/17 12:37:17;;;;;;;3.80;1.40;;;12.60;99.90;;;;;;5054276;28;20579;-71
2023/10/17 12:39:58;;;;;;;3.07;1.20;;;12.50;99.90;;;;;;5053581;28;20969;-71
2023/10/17 12:42:27;;;;;;;1.83;0.90;;;12.50;99.90;;;;;;5054329;28;20433;-71
2023/10/17 12:44:57;;;;;;;3.20;1.27;;;12.50;99.90;;;;;;5053629;28;20799;-71
2023/10/17 12:47:26;;;;;;;2.50;1.00;;;12.40;99.90;;;;;;5053452;28;20515;-71
2023/10/17 12:49:55;;;;;;;2.73;1.37;;;12.40;99.90;;;;;;5053807;28;20441;-71
2023/10/17 12:52:23;;;;;;;1.77;1.10;;;12.40;99.90;;;;;;5053787;28;20555;-71
2023/10/17 12:54:52;;;;;;;2.20;1.30;;;12.40;99.90;;;;;;5053441;28;20432;-71
2023/10/17 12:57:22;;;;;;;1.73;1.10;;;12.30;99.90;;;;;;5053418;28;20461;-71
2023/10/17 12:59:50;;;;;;;2.40;1.23;;;12.30;99.90;;;;;;5053577;28;20447;-71
2023/10/17 13:02:20;;;;;;;1.67;1.00;;;12.30;99.90;;;;;;5052086;28;20468;-71
2023/10/17 13:04:49;;;;;;;4.37;1.83;;;12.20;99.90;;;;;;5052121;28;20897;-71
2023/10/17 13:07:20;;;;;;;4.40;1.13;;;12.20;99.90;;;;;;5051993;28;21028;-71
2023/10/17 13:09:48;;;;;;;1.80;1.10;;;12.20;99.90;;;;;;5053306;28;20446;-71
2023/10/17 13:12:16;;;;;;;2.33;1.20;;;12.30;99.90;;;;;;5053140;28;20531;-71
2023/10/17 13:14:44;;;;;;;2.00;1.13;;;12.20;99.90;;;;;;5053140;28;20433;-71
2023/10/17 13:17:13;;;;;;;2.20;1.30;;;12.20;99.90;;;;;;5053267;28;20458;-71
2023/10/17 13:19:43;;;;;;;2.73;1.40;;;12.30;99.90;;;;;;5053261;28;20509;-71
2023/10/17 13:22:17;;;;;;;2.43;1.13;;;12.20;99.90;;;;;;5054346;28;20430;-71
2023/10/17 13:24:48;;;;;;;6.60;4.90;;;12.20;99.90;;;;;;5053998;28;20418;-71
2023/10/17 13:27:17;;;;;;;2.70;1.50;;;12.20;99.90;;;;;;5053278;28;20515;-71
2023/10/17 13:29:49;;;;;;;5.07;2.90;;;12.10;99.90;;;;;;5054712;28;20433;-71
2023/10/17 13:32:17;;;;;;;2.50;1.60;;;12.10;99.90;;;;;;5057252;28;20565;-71
2023/10/17 13:34:46;;;;;;;6.43;2.33;;;12.10;99.90;;;;;;5057253;28;20438;-71
2023/10/17 13:37:14;;;;;;;3.53;2.30;;;12.10;99.90;;;;;;5057897;28;20489;-71
2023/10/17 13:39:42;;;;;;;5.17;4.70;;;12.00;99.90;;;;;;5057096;28;20436;-71
2023/10/17 13:42:13;;;;;;;3.30;2.00;;;12.00;99.90;;;;;;5056873;28;20434;-71
2023/10/17 13:44:41;;;;;;;2.63;1.30;;;12.00;99.90;;;;;;5057482;28;20509;-71
2023/10/17 13:47:09;;;;;;;2.93;1.60;;;12.00;99.90;;;;;;5056717;28;20458;-71
2023/10/17 13:49:38;;;;;;;3.43;1.80;;;12.00;99.90;;;;;;5055560;28;20443;-71
2023/10/17 13:52:08;;;;;;;3.37;1.30;;;12.00;99.90;;;;;;5056660;28;20465;-71
2023/10/17 13:54:39;;;;;;;1.80;1.10;;;11.90;99.90;;;;;;5055446;28;20441;-71
2023/10/17 13:57:09;;;;;;;2.83;1.50;;;11.90;99.90;;;;;;5056985;28;20454;-71
2023/10/17 13:59:47;;;;;;;1.90;1.20;;;11.90;99.90;;;;;;5056839;28;20861;-71
2023/10/17 14:02:20;;;;;;;4.27;1.40;;;11.90;99.90;;;;;;5056718;28;20422;-72
2023/10/17 14:04:50;;;;;;;3.50;1.40;;;11.90;99.90;;;;;;5056573;28;20756;-72
2023/10/17 14:07:18;;;;;;;2.60;1.20;;;11.80;99.90;;;;;;5055044;28;20564;-71
2023/10/17 14:09:46;;;;;;;1.87;1.13;;;11.80;99.90;;;;;;5056585;28;20452;-71
2023/10/17 14:12:14;;;;;;;3.53;1.90;;;11.80;99.90;;;;;;5056308;28;20978;-71
2023/10/17 14:14:44;;;;;;;2.30;1.90;;;11.80;99.90;;;;;;5056277;28;20445;-72
2023/10/17 14:17:12;;;;;;;1.90;1.20;;;11.80;99.90;;;;;;5056424;28;20494;-71
2023/10/17 14:19:44;;;;;;;3.30;1.10;;;11.90;99.90;;;;;;5056504;28;20931;-71
2023/10/17 14:22:33;;;;;;;2.03;1.23;;;11.90;99.90;;;;;;5056766;28;20447;-71
2023/10/17 14:25:03;;;;;;;3.67;1.30;;;11.90;99.90;;;;;;5056700;28;20439;-71
2023/10/17 14:27:31;;;;;;;2.57;1.30;;;11.90;99.90;;;;;;5056655;28;20465;-71
2023/10/17 14:30:05;;;;;;;3.40;1.40;;;12.00;99.90;;;;;;5056457;28;20483;-71
2023/10/17 14:32:35;;;;;;;3.80;1.20;;;12.00;99.90;;;;;;5057326;28;20599;-71
2023/10/17 14:35:04;;;;;;;4.10;1.50;;;12.00;99.90;;;;;;5058289;28;20438;-71
2023/10/17 14:37:32;;;;;;;3.47;1.30;;;12.00;99.90;;;;;;5065531;28;20552;-71
2023/10/17 14:40:00;;;;;;;2.47;1.17;;;12.00;99.90;;;;;;5062098;28;20453;-71
2023/10/17 14:42:28;;;;;;;2.73;1.30;;;12.10;99.90;;;;;;5063153;28;20465;-71